Time;durP1;ratioP1;P1;durP2;ratioP2;P2;SDS_P1;SDS_P2;PMS_P1;PMS_P2;Temp;Humidity;BMP_temperature;BMP_pressure;BME280_temperature;BME280_humidity;BME280_pressure;Samples;Min_cycle;Max_cycle;Signal;HPM_P1;HPM_P2
2021/01/17 00:00:49;;;;;;;;;;;;;;;13.20;34.91;100061.03;4371379;32;19955;-64
2021/01/17 00:03:15;;;;;;;;;;;;;;;13.23;34.88;100056.75;4381552;32;20331;-64
2021/01/17 00:05:41;;;;;;;;;;;;;;;13.20;34.88;100050.56;4397249;32;19950;-64
2021/01/17 00:08:07;;;;;;;;;;;;;;;13.20;34.88;100042.72;4401675;32;20307;-64
2021/01/17 00:10:33;;;;;;;;;;;;;;;13.17;34.90;100037.41;4401904;32;20301;-64
2021/01/17 00:12:59;;;;;;;;;;;;;;;13.18;34.90;100040.87;4388156;32;19952;-64
2021/01/17 00:15:25;;;;;;;;;;;;;;;13.18;34.90;100040.87;4370961;32;19946;-63
2021/01/17 00:17:51;;;;;;;;;;;;;;;13.16;34.91;100033.00;4378076;32;19946;-64
2021/01/17 00:20:17;;;;;;;;;;;;;;;13.18;34.90;100028.72;4375814;32;19959;-64
2021/01/17 00:22:42;;;;;;;;;;;;;;;13.18;34.90;100027.81;4391831;32;20437;-63
2021/01/17 00:25:08;;;;;;;;;;;;;;;13.17;34.92;100026.94;4402190;32;20341;-64
2021/01/17 00:27:34;;;;;;;;;;;;;;;13.15;34.94;100026.00;4398857;32;19954;-64
2021/01/17 00:30:00;;;;;;;;;;;;;;;13.15;34.94;100025.09;4374019;32;19955;-64
2021/01/17 00:32:26;;;;;;;;;;;;;;;13.15;34.98;100023.37;4359749;32;19965;-64
2021/01/17 00:34:52;;;;;;;;;;;;;;;13.13;34.98;100017.19;4386871;32;19969;-64
2021/01/17 00:37:18;;;;;;;;;;;;;;;13.13;34.98;100013.69;4379446;32;20051;-63
2021/01/17 00:39:43;;;;;;;;;;;;;;;13.13;34.98;100006.72;4386730;32;19960;-64
2021/01/17 00:42:09;;;;;;;;;;;;;;;13.14;35.00;100008.50;4386538;32;20351;-64
2021/01/17 00:44:35;;;;;;;;;;;;;;;13.15;34.97;100002.47;4371766;32;19976;-64
2021/01/17 00:47:01;;;;;;;;;;;;;;;13.15;34.97;99997.25;4372520;32;20994;-64
2021/01/17 00:49:27;;;;;;;;;;;;;;;13.15;34.98;99999.84;4386515;32;19957;-65
2021/01/17 00:51:53;;;;;;;;;;;;;;;13.14;34.99;99990.19;4395357;32;20389;-63
2021/01/17 00:54:19;;;;;;;;;;;;;;;13.13;35.01;99984.94;4404262;32;19950;-64
2021/01/17 00:56:45;;;;;;;;;;;;;;;13.12;35.00;99981.41;4405163;32;20323;-64
2021/01/17 00:59:11;;;;;;;;;;;;;;;13.12;35.03;99981.41;4391547;32;19955;-63
2021/01/17 01:01:36;;;;;;;;;;;;;;;13.13;35.00;99977.09;4360911;32;20556;-64
2021/01/17 01:04:02;;;;;;;;;;;;;;;13.11;35.01;99979.63;4383484;32;20037;-64
2021/01/17 01:06:28;;;;;;;;;;;;;;;13.12;35.02;99976.19;4388066;32;20508;-63
2021/01/17 01:08:54;;;;;;;;;;;;;;;13.13;35.01;99971.84;4384154;32;19993;-64
2021/01/17 01:11:20;;;;;;;;;;;;;;;13.12;35.08;99970.09;4374260;32;19953;-64
2021/01/17 01:13:46;;;;;;;;;;;;;;;13.11;35.09;99971.78;4379555;32;19954;-64
2021/01/17 01:16:12;;;;;;;;;;;;;;;13.11;35.05;99963.06;4389323;32;20022;-64
2021/01/17 01:18:38;;;;;;;;;;;;;;;13.10;35.05;99962.16;4384262;32;19980;-63
2021/01/17 01:21:04;;;;;;;;;;;;;;;13.08;35.04;99959.50;4383725;32;20000;-63
2021/01/17 01:23:30;;;;;;;;;;;;;;;13.10;35.06;99956.06;4403960;32;19965;-64
2021/01/17 01:25:55;;;;;;;;;;;;;;;13.09;35.06;99944.72;4404201;32;19950;-64
2021/01/17 01:28:21;;;;;;;;;;;;;;;13.09;35.06;99944.72;4401625;32;19962;-64
2021/01/17 01:30:47;;;;;;;;;;;;;;;13.10;35.06;99941.25;4383977;32;20329;-64
2021/01/17 01:33:13;;;;;;;;;;;;;;;13.12;35.04;99942.19;4376043;32;19959;-62
2021/01/17 01:35:39;;;;;;;;;;;;;;;13.15;35.07;99933.56;4386572;32;19981;-65
2021/01/17 01:38:05;;;;;;;;;;;;;;;13.14;35.02;99932.69;4373564;32;19962;-64
2021/01/17 01:40:31;;;;;;;;;;;;;;;13.12;35.05;99929.12;4372421;32;19985;-64
2021/01/17 01:42:57;;;;;;;;;;;;;;;13.11;35.04;99922.13;4371477;32;19979;-64
2021/01/17 01:45:23;;;;;;;;;;;;;;;13.10;35.07;99928.19;4371139;32;20378;-62
2021/01/17 01:47:49;;;;;;;;;;;;;;;13.09;35.07;99923.78;4387174;32;19991;-64
2021/01/17 01:50:14;;;;;;;;;;;;;;;13.09;35.07;99921.19;4374600;32;20152;-62
2021/01/17 01:52:40;;;;;;;;;;;;;;;13.10;35.06;99916.84;4386551;32;20014;-64
2021/01/17 01:55:06;;;;;;;;;;;;;;;13.12;35.05;99926.50;4368249;32;19962;-63
2021/01/17 01:57:32;;;;;;;;;;;;;;;13.12;35.09;99918.66;4371684;32;19977;-63
2021/01/17 01:59:58;;;;;;;;;;;;;;;13.11;35.06;99916.87;4379749;32;19962;-64
2021/01/17 02:02:24;;;;;;;;;;;;;;;13.12;35.11;99916.06;4389102;32;19950;-64
2021/01/17 02:04:50;;;;;;;;;;;;;;;13.13;35.10;99914.34;4379606;32;19964;-64
2021/01/17 02:07:16;;;;;;;;;;;;;;;13.12;35.08;99918.66;4373333;32;19947;-64
2021/01/17 02:09:41;;;;;;;;;;;;;;;13.13;35.11;99916.94;4378715;32;20268;-64
2021/01/17 02:12:07;;;;;;;;;;;;;;;13.09;35.08;99918.56;4388206;32;19964;-63
2021/01/17 02:14:33;;;;;;;;;;;;;;;13.09;35.08;99918.56;4383420;32;19992;-63
2021/01/17 02:16:59;;;;;;;;;;;;;;;13.08;35.08;99906.34;4373590;32;20610;-64
2021/01/17 02:19:25;;;;;;;;;;;;;;;13.09;35.07;99905.50;4375636;32;19966;-64
2021/01/17 02:21:51;;;;;;;;;;;;;;;13.10;35.08;99915.13;4388829;32;19991;-64
2021/01/17 02:24:17;;;;;;;;;;;;;;;13.10;35.08;99904.66;4388399;32;19955;-63
2021/01/17 02:26:43;;;;;;;;;;;;;;;13.09;35.08;99908.09;4399023;32;20001;-65
2021/01/17 02:29:08;;;;;;;;;;;;;;;13.11;35.12;99910.78;4402498;32;19939;-64
2021/01/17 02:31:35;;;;;;;;;;;;;;;13.11;35.12;99906.44;4403070;32;19954;-64
2021/01/17 02:34:01;;;;;;;;;;;;;;;13.11;35.14;99911.66;4402969;32;19959;-64
2021/01/17 02:36:26;;;;;;;;;;;;;;;13.12;35.14;99908.22;4403645;32;19954;-64
2021/01/17 02:38:52;;;;;;;;;;;;;;;13.11;35.10;99916.03;4402986;32;19982;-64
2021/01/17 02:41:18;;;;;;;;;;;;;;;13.10;35.16;99909.00;4367912;32;19966;-62
2021/01/17 02:43:44;;;;;;;;;;;;;;;13.10;35.12;99920.34;4372972;32;19961;-63
2021/01/17 02:46:10;;;;;;;;;;;;;;;13.09;35.12;99918.56;4384026;32;19984;-64
2021/01/17 02:48:36;;;;;;;;;;;;;;;13.09;35.11;99913.34;4388221;32;19954;-65
2021/01/17 02:51:02;;;;;;;;;;;;;;;13.09;35.12;99915.94;4382491;32;20364;-64
2021/01/17 02:53:28;;;;;;;;;;;;;;;13.08;35.14;99916.78;4387317;32;19990;-65
2021/01/17 02:55:54;;;;;;;;;;;;;;;13.08;35.15;99919.41;4402679;32;19963;-64
2021/01/17 02:58:20;;;;;;;;;;;;;;;13.09;35.15;99918.56;4402519;32;19965;-63
2021/01/17 03:00:46;;;;;;;;;;;;;;;13.12;35.16;99926.50;4395294;32;20296;-64
2021/01/17 03:03:12;;;;;;;;;;;;;;;13.10;35.16;99925.56;4378216;32;20673;-64
2021/01/17 03:05:37;;;;;;;;;;;;;;;13.11;35.15;99916.03;4384758;32;19951;-64
2021/01/17 03:08:04;;;;;;;;;;;;;;;13.09;35.18;99908.09;4372781;32;19963;-60
2021/01/17 03:10:29;;;;;;;;;;;;;;;13.10;35.18;99904.66;4376761;32;19955;-64
2021/01/17 03:12:55;;;;;;;;;;;;;;;13.09;35.15;99897.66;4387345;32;20012;-64
2021/01/17 03:15:21;;;;;;;;;;;;;;;13.07;35.18;99896.72;4383406;32;20019;-64
2021/01/17 03:17:47;;;;;;;;;;;;;;;13.08;35.18;99895.88;4372924;32;19947;-64
2021/01/17 03:20:13;;;;;;;;;;;;;;;13.06;35.17;99893.19;4373557;32;19990;-64
2021/01/17 03:22:39;;;;;;;;;;;;;;;13.07;35.18;99883.62;4388358;32;20283;-64
2021/01/17 03:25:05;;;;;;;;;;;;;;;13.07;35.20;99883.62;4392916;32;19973;-64
2021/01/17 03:27:31;;;;;;;;;;;;;;;13.08;35.20;99885.41;4385435;32;20094;-64
2021/01/17 03:29:56;;;;;;;;;;;;;;;13.08;35.19;99885.41;4358061;32;20015;-63
2021/01/17 03:32:22;;;;;;;;;;;;;;;13.09;35.16;99876.72;4382590;32;20086;-65
2021/01/17 03:34:48;;;;;;;;;;;;;;;13.10;35.15;99883.75;4382720;32;19955;-63
2021/01/17 03:37:14;;;;;;;;;;;;;;;13.07;35.20;99886.25;4384706;32;20332;-63
2021/01/17 03:39:40;;;;;;;;;;;;;;;13.05;35.23;99882.72;4383633;32;19955;-64
2021/01/17 03:42:06;;;;;;;;;;;;;;;13.06;35.25;99892.31;4385993;32;20017;-63
2021/01/17 03:44:32;;;;;;;;;;;;;;;13.05;35.27;99885.31;4396073;32;20418;-64
2021/01/17 03:46:58;;;;;;;;;;;;;;;13.07;35.31;99900.19;4379144;32;20011;-64
2021/01/17 03:49:24;;;;;;;;;;;;;;;13.09;35.69;99897.66;4381025;32;19968;-63
2021/01/17 03:51:50;;;;;;;;;;;;;;;13.10;35.91;99899.44;4376190;32;20245;-64
2021/01/17 03:54:15;;;;;;;;;;;;;;;13.11;36.02;99900.34;4386124;32;20005;-64
2021/01/17 03:56:42;;;;;;;;;;;;;;;13.11;36.05;99905.56;4375909;32;19996;-64
2021/01/17 03:59:07;;;;;;;;;;;;;;;13.08;35.99;99903.72;4383260;32;19943;-62
2021/01/17 04:01:33;;;;;;;;;;;;;;;13.07;35.67;99896.72;4379128;32;19991;-61
2021/01/17 04:03:59;;;;;;;;;;;;;;;13.06;35.56;99893.19;4391984;32;19959;-64
2021/01/17 04:06:25;;;;;;;;;;;;;;;13.05;35.55;99890.53;4387817;32;19947;-64
2021/01/17 04:08:51;;;;;;;;;;;;;;;13.03;35.54;99887.88;4395264;32;20328;-63
2021/01/17 04:11:17;;;;;;;;;;;;;;;13.03;35.56;99887.00;4380885;32;19992;-64
2021/01/17 04:13:43;;;;;;;;;;;;;;;13.03;35.55;99894.84;4395002;32;20021;-64
2021/01/17 04:16:09;;;;;;;;;;;;;;;13.03;35.57;99892.22;4395644;32;19938;-64
2021/01/17 04:18:35;;;;;;;;;;;;;;;13.04;35.57;99888.78;4393696;32;19958;-63
2021/01/17 04:21:00;;;;;;;;;;;;;;;13.04;35.58;99880.94;4395843;32;19981;-64
2021/01/17 04:23:26;;;;;;;;;;;;;;;13.04;35.56;99888.78;4394960;32;20342;-63
2021/01/17 04:25:52;;;;;;;;;;;;;;;13.05;35.55;99887.94;4397651;32;19958;-64
2021/01/17 04:28:18;;;;;;;;;;;;;;;13.06;35.56;99881.88;4390246;32;19942;-64
2021/01/17 04:30:45;;;;;;;;;;;;;;;13.08;35.53;99890.66;4377291;32;19947;-63
2021/01/17 04:33:11;;;;;;;;;;;;;;;13.11;35.50;99890.75;4394661;32;19955;-64
2021/01/17 04:35:37;;;;;;;;;;;;;;;13.15;35.56;99887.41;4396156;32;20000;-64
2021/01/17 04:38:03;;;;;;;;;;;;;;;13.20;35.42;99888.44;4380740;32;20363;-63
2021/01/17 04:40:29;;;;;;;;;;;;;;;13.28;35.31;99895.69;4393577;32;19938;-64
2021/01/17 04:42:55;;;;;;;;;;;;;;;13.31;35.33;99894.03;4394652;32;19935;-63
2021/01/17 04:45:20;;;;;;;;;;;;;;;13.35;35.27;99895.03;4378795;32;19966;-64
2021/01/17 04:47:47;;;;;;;;;;;;;;;13.36;35.24;99891.56;4394646;32;19969;-63
2021/01/17 04:50:13;;;;;;;;;;;;;;;13.30;35.36;99891.38;4393523;32;20085;-64
2021/01/17 04:52:39;;;;;;;;;;;;;;;13.33;35.31;99896.72;4378677;32;20383;-64
2021/01/17 04:55:04;;;;;;;;;;;;;;;13.32;35.27;99901.03;4373118;32;19943;-64
2021/01/17 04:57:30;;;;;;;;;;;;;;;13.29;35.34;99906.19;4382185;32;19963;-65
2021/01/17 04:59:56;;;;;;;;;;;;;;;13.26;35.32;99894.72;4389538;32;20739;-63
2021/01/17 05:02:22;;;;;;;;;;;;;;;13.19;35.36;99894.53;4389242;32;19947;-64
2021/01/17 05:04:48;;;;;;;;;;;;;;;13.17;35.41;99896.19;4385421;32;19944;-64
2021/01/17 05:07:14;;;;;;;;;;;;;;;13.15;35.42;99889.13;4386741;32;19973;-62
2021/01/17 05:09:40;;;;;;;;;;;;;;;13.14;35.45;99901.31;4386461;32;19942;-64
2021/01/17 05:12:06;;;;;;;;;;;;;;;13.13;35.46;99904.75;4384397;32;19954;-64
2021/01/17 05:14:32;;;;;;;;;;;;;;;13.11;35.48;99901.19;4388362;32;20340;-60
2021/01/17 05:16:57;;;;;;;;;;;;;;;13.11;35.50;99901.19;4393903;32;19955;-60
2021/01/17 05:19:23;;;;;;;;;;;;;;;13.09;35.52;99897.66;4394681;32;19977;-60
2021/01/17 05:21:49;;;;;;;;;;;;;;;13.08;35.51;99901.97;4394645;32;19950;-60
2021/01/17 05:24:15;;;;;;;;;;;;;;;13.08;35.53;99903.72;4395148;32;19961;-61
2021/01/17 05:26:41;;;;;;;;;;;;;;;13.08;35.56;99903.72;4380050;32;20545;-60
2021/01/17 05:29:07;;;;;;;;;;;;;;;13.06;35.58;99902.78;4392371;32;20369;-61
2021/01/17 05:31:33;;;;;;;;;;;;;;;13.07;35.58;99912.41;4395376;32;19951;-60
2021/01/17 05:33:59;;;;;;;;;;;;;;;13.06;35.58;99914.09;4393916;32;20046;-61
2021/01/17 05:36:24;;;;;;;;;;;;;;;13.06;35.60;99908.00;4396645;32;19965;-60
2021/01/17 05:38:50;;;;;;;;;;;;;;;13.06;35.60;99908.00;4397256;32;20522;-61
2021/01/17 05:41:16;;;;;;;;;;;;;;;13.05;35.59;99911.47;4396620;32;19987;-61
2021/01/17 05:43:42;;;;;;;;;;;;;;;13.06;35.62;99908.00;4384480;32;20010;-60
2021/01/17 05:46:08;;;;;;;;;;;;;;;13.09;35.62;99908.09;4395859;32;20041;-60
2021/01/17 05:48:34;;;;;;;;;;;;;;;13.13;35.57;99904.75;4396864;32;20005;-60
2021/01/17 05:51:00;;;;;;;;;;;;;;;13.18;35.53;99913.66;4396694;32;20384;-60
2021/01/17 05:53:26;;;;;;;;;;;;;;;13.23;35.47;99915.53;4397357;32;19955;-60
2021/01/17 05:55:52;;;;;;;;;;;;;;;13.28;35.39;99919.22;4396626;32;19960;-61
2021/01/17 05:58:17;;;;;;;;;;;;;;;13.30;35.36;99912.31;4395769;32;19958;-60
2021/01/17 06:00:44;;;;;;;;;;;;;;;13.31;35.36;99914.09;4396987;32;19965;-60
2021/01/17 06:03:09;;;;;;;;;;;;;;;13.31;35.38;99917.56;4393424;32;20000;-61
2021/01/17 06:05:35;;;;;;;;;;;;;;;13.30;35.43;99912.31;4397192;32;19955;-60
2021/01/17 06:08:01;;;;;;;;;;;;;;;13.27;35.45;99902.63;4397760;32;20304;-60
2021/01/17 06:10:27;;;;;;;;;;;;;;;13.21;35.48;99900.69;4395860;32;19954;-61
2021/01/17 06:12:53;;;;;;;;;;;;;;;13.18;35.54;99897.97;4383951;32;20411;-60
2021/01/17 06:15:19;;;;;;;;;;;;;;;13.17;35.59;99901.44;4395335;32;19968;-61
2021/01/17 06:17:45;;;;;;;;;;;;;;;13.14;35.60;99901.31;4399023;32;20010;-61
2021/01/17 06:20:11;;;;;;;;;;;;;;;13.12;35.64;99896.88;4394446;32;20002;-60
2021/01/17 06:22:37;;;;;;;;;;;;;;;13.11;35.66;99895.09;4382179;32;20381;-61
2021/01/17 06:25:02;;;;;;;;;;;;;;;13.11;35.70;99901.19;4393610;32;19982;-60
2021/01/17 06:27:28;;;;;;;;;;;;;;;13.11;35.66;99893.34;4393470;32;20398;-60
2021/01/17 06:29:54;;;;;;;;;;;;;;;13.11;35.66;99893.34;4404090;32;19954;-60
2021/01/17 06:32:20;;;;;;;;;;;;;;;13.09;35.73;99897.66;4402735;32;19979;-61
2021/01/17 06:34:46;;;;;;;;;;;;;;;13.08;35.76;99906.34;4388631;32;19973;-61
2021/01/17 06:37:12;;;;;;;;;;;;;;;13.08;35.75;99909.81;4374111;32;19970;-60
2021/01/17 06:39:38;;;;;;;;;;;;;;;13.07;35.82;99909.78;4368982;32;19957;-60
2021/01/17 06:42:05;;;;;;;;;;;;;;;13.08;35.76;99916.78;4374623;32;20303;-60
2021/01/17 06:44:31;;;;;;;;;;;;;;;13.07;35.76;99920.25;4385851;32;19992;-60
2021/01/17 06:46:56;;;;;;;;;;;;;;;13.07;35.80;99915.00;4364068;32;20295;-61
2021/01/17 06:49:22;;;;;;;;;;;;;;;13.07;35.84;99925.47;4394517;32;19966;-61
2021/01/17 06:51:48;;;;;;;;;;;;;;;13.12;35.79;99929.12;4375783;32;20279;-61
2021/01/17 06:54:14;;;;;;;;;;;;;;;13.17;35.74;99927.56;4386583;32;19947;-60
2021/01/17 06:56:40;;;;;;;;;;;;;;;13.20;35.64;99930.28;4360327;32;19959;-60
2021/01/17 06:59:06;;;;;;;;;;;;;;;13.26;35.58;99931.31;4380882;32;19939;-60
2021/01/17 07:01:32;;;;;;;;;;;;;;;13.29;35.51;99932.31;4381850;32;19974;-60
2021/01/17 07:03:58;;;;;;;;;;;;;;;13.31;35.48;99937.63;4388707;32;20376;-61
2021/01/17 07:06:24;;;;;;;;;;;;;;;13.31;35.48;99935.88;4373944;32;20003;-61
2021/01/17 07:08:50;;;;;;;;;;;;;;;13.31;35.49;99937.63;4376251;32;20002;-60
2021/01/17 07:11:16;;;;;;;;;;;;;;;13.27;35.57;99940.94;4359458;32;19950;-61
2021/01/17 07:13:42;;;;;;;;;;;;;;;13.24;35.63;99946.06;4391073;32;19946;-61
2021/01/17 07:16:08;;;;;;;;;;;;;;;13.20;35.68;99948.59;4373084;32;19959;-60
2021/01/17 07:18:34;;;;;;;;;;;;;;;13.17;35.70;99948.50;4391125;32;20389;-61
2021/01/17 07:20:59;;;;;;;;;;;;;;;13.15;35.72;99952.78;4392200;32;19977;-60
2021/01/17 07:23:26;;;;;;;;;;;;;;;13.15;35.73;99968.47;4388395;32;19969;-60
2021/01/17 07:25:51;;;;;;;;;;;;;;;13.13;35.74;99964.03;4389982;32;19948;-60
2021/01/17 07:28:18;;;;;;;;;;;;;;;13.12;35.80;99964.84;4386301;32;19951;-61
2021/01/17 07:30:44;;;;;;;;;;;;;;;13.11;35.80;99966.56;4382540;32;19994;-60
2021/01/17 07:33:10;;;;;;;;;;;;;;;13.10;35.82;99970.00;4380715;32;19981;-60
2021/01/17 07:35:36;;;;;;;;;;;;;;;13.08;35.84;99969.94;4384407;32;19969;-61
2021/01/17 07:38:02;;;;;;;;;;;;;;;13.08;35.84;99975.19;4385771;32;19978;-61
2021/01/17 07:43:13;;;;;;;;;;;;;;;13.08;35.88;99979.53;4383516;32;20098;-60
2021/01/17 07:45:39;;;;;;;;;;;;;;;13.07;35.90;99983.00;4377812;32;20350;-60
2021/01/17 07:48:05;;;;;;;;;;;;;;;13.07;35.90;99978.63;4381179;32;20350;-60
2021/01/17 07:50:31;;;;;;;;;;;;;;;13.06;35.89;99981.22;4401377;32;19972;-60
2021/01/17 07:52:57;;;;;;;;;;;;;;;13.05;35.89;99977.69;4387055;32;19957;-60
2021/01/17 07:55:23;;;;;;;;;;;;;;;13.06;35.92;99981.22;4380405;32;20034;-60
2021/01/17 07:57:49;;;;;;;;;;;;;;;13.05;35.96;99987.28;4360274;32;19981;-60
2021/01/17 08:00:15;;;;;;;;;;;;;;;13.06;35.97;99986.44;4375170;32;19972;-60
2021/01/17 08:02:41;;;;;;;;;;;;;;;13.07;35.97;99988.22;4386100;32;19954;-60
2021/01/17 08:05:07;;;;;;;;;;;;;;;13.11;35.93;99990.09;4386241;32;19947;-61
2021/01/17 08:07:33;;;;;;;;;;;;;;;13.13;35.93;99988.41;4371351;32;20046;-61
2021/01/17 08:09:59;;;;;;;;;;;;;;;13.17;35.95;99998.19;4371238;32;19993;-61
2021/01/17 08:12:25;;;;;;;;;;;;;;;13.19;35.86;100009.56;4384195;32;19969;-61
2021/01/17 08:14:50;;;;;;;;;;;;;;;13.20;35.81;100008.75;4382657;32;20334;-60
2021/01/17 08:17:16;;;;;;;;;;;;;;;13.23;35.78;100010.59;4385210;32;20032;-60
2021/01/17 08:19:42;;;;;;;;;;;;;;;13.29;35.95;100015.16;4393279;32;19977;-61
2021/01/17 08:22:08;;;;;;;;;;;;;;;13.33;35.98;100022.25;4392935;32;19994;-61
2021/01/17 08:24:35;;;;;;;;;;;;;;;13.34;36.14;100019.72;4394140;32;19981;-61
2021/01/17 08:27:01;;;;;;;;;;;;;;;13.33;36.17;100011.78;4393449;32;20003;-60
2021/01/17 08:29:27;;;;;;;;;;;;;;;13.33;36.14;100017.03;4394199;32;19977;-61
2021/01/17 08:31:52;;;;;;;;;;;;;;;13.30;36.12;100011.69;4376262;32;20343;-61
2021/01/17 08:34:18;;;;;;;;;;;;;;;13.27;36.16;100016.78;4380990;32;19992;-61
2021/01/17 08:36:44;;;;;;;;;;;;;;;13.24;36.05;100028.06;4389731;32;19969;-61
2021/01/17 08:39:10;;;;;;;;;;;;;;;13.21;35.99;100026.19;4385450;32;19955;-61
2021/01/17 08:41:38;;;;;;;;;;;;;;;13.18;36.02;100028.72;4378149;32;19965;-61
2021/01/17 08:44:04;;;;;;;;;;;;;;;13.17;36.05;100039.09;4382243;32;20012;-60
2021/01/17 08:46:30;;;;;;;;;;;;;;;13.17;36.04;100049.56;4381825;32;19978;-61
2021/01/17 08:48:57;;;;;;;;;;;;;;;13.15;36.06;100043.41;4385169;32;19955;-60
2021/01/17 08:51:22;;;;;;;;;;;;;;;13.14;36.09;100044.22;4387423;32;20068;-60
2021/01/17 08:53:48;;;;;;;;;;;;;;;13.12;36.13;100038.06;4387315;32;20010;-61
2021/01/17 08:56:15;;;;;;;;;;;;;;;13.11;36.16;100037.16;4382758;32;19965;-60
2021/01/17 08:58:40;;;;;;;;;;;;;;;13.10;36.17;100040.59;4391475;32;19954;-61
2021/01/17 09:01:06;;;;;;;;;;;;;;;13.11;36.15;100041.50;4402179;32;19934;-61
2021/01/17 09:03:32;;;;;;;;;;;;;;;13.10;36.16;100035.38;4401867;32;19961;-61
2021/01/17 09:05:58;;;;;;;;;;;;;;;13.12;36.14;100038.06;4385528;32;19970;-61
2021/01/17 09:08:24;;;;;;;;;;;;;;;13.10;36.16;100040.59;4388039;32;19943;-61
2021/01/17 09:10:50;;;;;;;;;;;;;;;13.10;36.16;100045.84;4390717;32;19950;-60
2021/01/17 09:13:16;;;;;;;;;;;;;;;13.11;36.17;100044.13;4404094;32;20004;-61
2021/01/17 09:15:42;;;;;;;;;;;;;;;13.13;36.15;100051.16;4406040;32;20659;-61
2021/01/17 09:18:08;;;;;;;;;;;;;;;13.17;36.12;100047.84;4363950;32;19939;-61
2021/01/17 09:20:34;;;;;;;;;;;;;;;13.23;36.06;100061.97;4374885;32;19975;-61
2021/01/17 09:23:01;;;;;;;;;;;;;;;13.28;36.01;100063.06;4388608;32;19955;-61
2021/01/17 09:25:27;;;;;;;;;;;;;;;13.33;35.92;100069.34;4398367;32;19946;-61
2021/01/17 09:27:53;;;;;;;;;;;;;;;13.36;35.81;100069.44;4382403;32;20401;-61
2021/01/17 09:30:19;;;;;;;;;;;;;;;13.38;35.78;100073.00;4368631;32;19962;-60
2021/01/17 09:32:45;;;;;;;;;;;;;;;13.38;35.77;100073.00;4396978;32;19995;-60
2021/01/17 09:35:11;;;;;;;;;;;;;;;13.39;35.83;100084.34;4385705;32;19980;-61
2021/01/17 09:37:37;;;;;;;;;;;;;;;13.37;35.80;100076.44;4382455;32;19973;-61
2021/01/17 09:40:03;;;;;;;;;;;;;;;13.34;35.88;100086.81;4381873;32;19973;-61
2021/01/17 09:42:28;;;;;;;;;;;;;;;13.27;35.93;100080.47;4397731;32;19955;-60
2021/01/17 09:44:54;;;;;;;;;;;;;;;13.27;36.00;100090.00;4396084;32;19951;-61
2021/01/17 09:47:20;;;;;;;;;;;;;;;13.24;36.04;100088.19;4382432;32;19947;-61
2021/01/17 09:49:46;;;;;;;;;;;;;;;13.21;36.07;100088.97;4398805;32;19977;-61
2021/01/17 09:52:12;;;;;;;;;;;;;;;13.20;36.09;100100.25;4381979;32;20354;-61
2021/01/17 09:54:38;;;;;;;;;;;;;;;13.20;36.11;100100.25;4388336;32;19967;-61
2021/01/17 09:57:04;;;;;;;;;;;;;;;13.19;36.11;100103.72;4391613;32;20337;-63
2021/01/17 09:59:30;;;;;;;;;;;;;;;13.21;36.11;100106.38;4396882;32;19969;-62
2021/01/17 10:01:58;;;;;;;;;;;;;;;13.27;36.20;100105.69;4399202;32;19989;-64
2021/01/17 10:04:24;;;;;;;;;;;;;;;13.17;36.48;100110.63;4378761;32;19996;-64
2021/01/17 10:06:50;;;;;;;;;;;;;;;13.13;36.36;100111.31;4391409;32;19983;-64
2021/01/17 10:09:16;;;;;;;;;;;;;;;13.12;36.40;100112.16;4386539;32;19973;-63
2021/01/17 10:11:42;;;;;;;;;;;;;;;13.13;36.24;100108.69;4386076;32;20018;-64
2021/01/17 10:14:08;;;;;;;;;;;;;;;13.13;36.23;100115.66;4385714;32;19992;-63
2021/01/17 10:16:34;;;;;;;;;;;;;;;13.13;36.22;100119.16;4371035;32;20615;-65
2021/01/17 10:19:00;;;;;;;;;;;;;;;13.14;36.21;100118.31;4360442;32;19969;-63
2021/01/17 10:21:26;;;;;;;;;;;;;;;13.17;36.19;100120.16;4369555;32;20052;-63
2021/01/17 10:23:51;;;;;;;;;;;;;;;13.20;36.17;100115.94;4370586;32;20354;-64
2021/01/17 10:26:17;;;;;;;;;;;;;;;13.24;36.12;100121.28;4387023;32;19965;-64
2021/01/17 10:28:43;;;;;;;;;;;;;;;13.27;36.09;100114.47;4373367;32;19995;-64
2021/01/17 10:31:09;;;;;;;;;;;;;;;13.31;36.02;100120.69;4370996;32;19951;-64
2021/01/17 10:33:35;;;;;;;;;;;;;;;13.34;35.97;100123.41;4381452;32;20841;-63
2021/01/17 10:36:01;;;;;;;;;;;;;;;13.39;35.92;100116.62;4387113;32;19957;-64
2021/01/17 10:38:27;;;;;;;;;;;;;;;13.42;35.87;100124.59;4400635;32;19984;-64
2021/01/17 10:40:53;;;;;;;;;;;;;;;13.42;35.87;100122.00;4401770;32;20042;-64
2021/01/17 10:43:18;;;;;;;;;;;;;;;13.41;35.91;100130.69;4374616;32;20381;-63
2021/01/17 10:45:44;;;;;;;;;;;;;;;13.37;35.95;100122.66;4376433;32;19955;-64
2021/01/17 10:48:10;;;;;;;;;;;;;;;13.35;36.02;100135.66;4372152;32;19959;-63
2021/01/17 10:50:36;;;;;;;;;;;;;;;13.31;36.04;100126.81;4386745;32;19988;-64
2021/01/17 10:53:02;;;;;;;;;;;;;;;13.30;36.06;100126.75;4386721;32;19951;-64
2021/01/17 10:55:28;;;;;;;;;;;;;;;13.29;36.08;100130.22;4370976;32;19994;-64
2021/01/17 10:57:54;;;;;;;;;;;;;;;13.27;36.12;100127.53;4389734;32;19958;-64
2021/01/17 11:00:20;;;;;;;;;;;;;;;13.26;36.14;100130.06;4386174;32;19950;-64
2021/01/17 11:02:46;;;;;;;;;;;;;;;13.26;36.16;100124.84;4372972;32;20591;-64
2021/01/17 11:05:12;;;;;;;;;;;;;;;13.25;36.17;100123.97;4374126;32;19961;-64
2021/01/17 11:07:37;;;;;;;;;;;;;;;13.25;36.17;100136.16;4396028;32;19977;-64
2021/01/17 11:10:03;;;;;;;;;;;;;;;13.25;36.19;100133.53;4401477;32;19986;-63
2021/01/17 11:12:29;;;;;;;;;;;;;;;13.23;36.19;100124.75;4395612;32;19966;-64
2021/01/17 11:14:55;;;;;;;;;;;;;;;13.24;36.21;100136.97;4376140;32;19943;-64
2021/01/17 11:17:21;;;;;;;;;;;;;;;13.22;36.22;100123.88;4386922;32;20366;-64
2021/01/17 11:19:47;;;;;;;;;;;;;;;13.24;36.22;100116.06;4363273;32;20005;-64
2021/01/17 11:22:13;;;;;;;;;;;;;;;13.22;36.23;100123.88;4370860;32;19939;-64
2021/01/17 11:24:39;;;;;;;;;;;;;;;13.24;36.25;100121.28;4382635;32;20265;-64
2021/01/17 11:27:04;;;;;;;;;;;;;;;13.25;36.24;100118.75;4387557;32;19955;-64
2021/01/17 11:29:30;;;;;;;;;;;;;;;13.28;36.21;100107.50;4376181;32;19958;-64
2021/01/17 11:31:56;;;;;;;;;;;;;;;13.32;36.15;100115.50;4361380;32;19963;-64
2021/01/17 11:34:22;;;;;;;;;;;;;;;13.37;36.08;100122.66;4387708;32;20282;-64
2021/01/17 11:36:48;;;;;;;;;;;;;;;13.39;36.04;100116.62;4400799;32;19981;-64
2021/01/17 11:39:14;;;;;;;;;;;;;;;13.44;35.96;100122.06;4386004;32;19951;-64
2021/01/17 11:41:40;;;;;;;;;;;;;;;13.47;35.89;100124.81;4396312;32;19968;-65
2021/01/17 11:44:06;;;;;;;;;;;;;;;13.49;35.87;100123.13;4400198;32;19991;-64
2021/01/17 11:46:32;;;;;;;;;;;;;;;13.49;35.86;100123.13;4400802;32;20025;-64
2021/01/17 11:48:58;;;;;;;;;;;;;;;13.50;35.87;100124.91;4395784;32;19986;-55
2021/01/17 11:51:24;;;;;;;;;;;;;;;13.47;35.94;100127.44;4382032;32;19981;-58
2021/01/17 11:53:50;;;;;;;;;;;;;;;13.40;36.17;100125.37;4397550;32;20320;-58
2021/01/17 11:56:16;;;;;;;;;;;;;;;13.43;36.46;100123.78;4393342;32;19965;-57
2021/01/17 11:58:41;;;;;;;;;;;;;;;13.44;36.46;100125.59;4396287;32;19954;-59
2021/01/17 12:01:07;;;;;;;;;;;;;;;13.52;37.12;100127.56;4394207;32;19954;-58
2021/01/17 12:03:33;;;;;;;;;;;;;;;13.60;38.82;100140.12;4393368;32;20004;-57
2021/01/17 12:05:59;;;;;;;;;;;;;;;13.65;38.62;100137.69;4395504;32;19971;-58
2021/01/17 12:08:25;;;;;;;;;;;;;;;13.69;40.31;100125.56;4396082;32;19965;-58
2021/01/17 12:10:51;;;;;;;;;;;;;;;13.71;40.74;100119.56;4393098;32;19973;-58
2021/01/17 12:13:17;;;;;;;;;;;;;;;13.74;40.33;100119.66;4394637;32;19990;-58
2021/01/17 12:15:43;;;;;;;;;;;;;;;13.73;41.99;100123.13;4395748;32;19987;-58
2021/01/17 12:18:09;;;;;;;;;;;;;;;13.73;41.95;100125.75;4394818;32;19965;-58
2021/01/17 12:20:35;;;;;;;;;;;;;;;13.75;41.80;100125.81;4393995;32;20628;-59
2021/01/17 12:23:00;;;;;;;;;;;;;;;13.81;41.44;100120.78;4394027;32;19935;-58
2021/01/17 12:25:26;;;;;;;;;;;;;;;13.82;40.97;100121.69;4395826;32;19958;-55
2021/01/17 12:27:53;;;;;;;;;;;;;;;13.83;40.84;100123.47;4398992;32;20294;-58
2021/01/17 12:30:19;;;;;;;;;;;;;;;13.84;40.54;100126.13;4395510;32;19997;-54
2021/01/17 12:32:45;;;;;;;;;;;;;;;13.85;40.75;100125.31;4401188;32;20025;-58
2021/01/17 12:35:12;;;;;;;;;;;;;;;13.84;39.64;100120.91;4398172;32;19969;-57
2021/01/17 12:37:38;;;;;;;;;;;;;;;13.87;39.56;100122.72;4396414;32;19958;-58